Terminal Aerodrome Forecast
Issued by NWS Northern Indiana

Home | Current Version | Previous Version | Text Only | Print | Product List | Glossary On
Versions: 1 2 3 4 5 6 7 8 9 10 11 12 13 14 15 16 17
000
FTUS43 KIWX 272339
TAFFWA
TAF
KFWA 272339Z 2800/2824 07003KT P6SM SCT045
     FM280900 10002KT 6SM BR SCT250
      TEMPO 2810/2812 3SM BR
     FM281300 17005KT P6SM SCT030
     FM281600 19008KT P6SM SCT040=

USA.gov is the U.S. government's official web portal to all federal, state and local government web resources and services.